Velserdiep — PBLP — position and weather

sailwx.info

Track history (hours):
 
Tides and Currents Weather Stations Pressure Air Temp Water Temp Dewpoint Dewpoint Depression Visibility Wind Speed Wind Dir Waves Ship Positions

Velserdiep

Last reported at 2014-Sep-23 16:29 UTC. Time now 2014-Sep-23 22:30 UTC.
Position N 36°49' E 013°23'.

Length 120 m; draft 7 m.

Type: Cargo ship. MMSI: 244484000.

Date/timePositionNaut miles runAvg speedWind from/ knotsBaromVisibWave heightAir tempDewpointWater temp
2014-Sep-23 16:29N 36°49' E 013°23'910.2
2014-Sep-23 15:33N 36°47' E 013°34'1010.4
2014-Sep-23 14:33N 36°45' E 013°47'1110.7
2014-Sep-23 13:33N 36°43' E 013°60'1010.1
2014-Sep-23 12:33N 36°41' E 014°12'1010.0
2014-Sep-23 11:33N 36°38' E 014°24'1010.4
2014-Sep-23 10:33N 36°36' E 014°37'1210.4
2014-Sep-23 09:27N 36°34' E 014°51'40911.0
2014-Sep-21 20:27N 36°27' E 023°20'1111.6
2014-Sep-21 19:33N 36°33' E 023°31'1211.8
2014-Sep-21 18:33N 36°39' E 023°43'2712.3
2014-Sep-21 16:20N 36°53' E 024°12'1012.4
2014-Sep-21 15:33N 36°59' E 024°22'1211.7
2014-Sep-21 14:33N 37°05' E 024°35'1211.8
2014-Sep-21 13:33N 37°12' E 024°46'1212.1
2014-Sep-21 12:33N 37°20' E 024°58'5 5.2
2014-Sep-21 11:33N 37°25' E 024°58'0 0.0
2014-Sep-21 10:33N 37°25' E 024°58'0 0.0
2014-Sep-21 09:33N 37°25' E 024°58'0 0.0
2014-Sep-21 08:33N 37°25' E 024°58'0 0.1
2014-Sep-21 07:33N 37°25' E 024°58'3 3.0
2014-Sep-21 06:33N 37°27' E 025°02'9110.0
2014-Sep-20 21:25N 38°58' E 025°15'19710.9
2014-Sep-20 03:20N 40°54' E 028°43'911.4
2014-Sep-20 02:33N 40°56' E 028°54'1410.6
2014-Sep-20 01:12N 41°08' E 029°04'15 8.5
2014-Sep-19 23:23N 41°24' E 029°03'  
2014-Sep-17 02:33N 40°59' E 028°60'9 9.1
2014-Sep-17 01:33N 40°50' E 029°03'6 5.6
2014-Sep-17 00:24N 40°52' E 029°11'0 0.0
2014-Sep-16 23:30N 40°52' E 029°11'0 0.0
2014-Sep-16 22:12N 40°52' E 029°11'0 0.0
2014-Sep-16 21:06N 40°52' E 029°11'0 0.0
2014-Sep-16 20:30N 40°52' E 029°11'0 0.0
2014-Sep-16 19:30N 40°52' E 029°11'0 0.0
2014-Sep-16 18:12N 40°52' E 029°11'0 0.0
2014-Sep-16 17:30N 40°52' E 029°11'0 0.0
2014-Sep-16 16:29N 40°52' E 029°11'0 0.0
2014-Sep-16 15:23N 40°52' E 029°11'0 0.0
2014-Sep-16 14:23N 40°52' E 029°11'0 0.0
2014-Sep-16 13:23N 40°52' E 029°11'0 0.0
2014-Sep-16 12:29N 40°52' E 029°11'0 0.2
2014-Sep-16 11:29N 40°52' E 029°11'0 0.0
2014-Sep-16 10:29N 40°52' E 029°11'0 0.0
2014-Sep-16 09:29N 40°52' E 029°11'0 0.1
2014-Sep-16 08:29N 40°52' E 029°11'0 0.0
2014-Sep-16 07:17N 40°52' E 029°11'0 0.0
2014-Sep-16 06:17N 40°52' E 029°11'0 0.1
2014-Sep-16 05:29N 40°52' E 029°11'0 0.0
2014-Sep-16 04:29N 40°52' E 029°11'0 0.0
2014-Sep-16 03:29N 40°52' E 029°11'0 0.0
2014-Sep-16 02:29N 40°52' E 029°11'0 0.0
2014-Sep-16 01:29N 40°52' E 029°11'0 0.0
2014-Sep-16 00:29N 40°52' E 029°11'0 0.0
2014-Sep-15 23:23N 40°52' E 029°11'0 0.0
2014-Sep-15 22:29N 40°52' E 029°11'0 0.0
2014-Sep-15 21:17N 40°52' E 029°11'0 0.0
2014-Sep-15 20:29N 40°52' E 029°11'0 0.0
2014-Sep-15 19:29N 40°52' E 029°11'0 0.0
2014-Sep-15 18:29N 40°52' E 029°11'0 0.0
2014-Sep-15 17:23N 40°52' E 029°11'0 0.0
2014-Sep-15 16:29N 40°52' E 029°11'0 0.0
2014-Sep-15 14:29N 40°52' E 029°11'0 0.0
2014-Sep-15 13:29N 40°52' E 029°11'0 0.1
2014-Sep-15 12:29N 40°52' E 029°11'0 0.0
2014-Sep-15 11:29N 40°52' E 029°11'0 0.1
2014-Sep-15 10:17N 40°52' E 029°11'0 0.0
2014-Sep-15 09:29N 40°52' E 029°11'0 0.1
2014-Sep-15 08:29N 40°52' E 029°11'0 0.1
2014-Sep-15 07:29N 40°52' E 029°11'0 0.0
2014-Sep-15 06:23N 40°52' E 029°11'0 0.0
2014-Sep-15 05:29N 40°52' E 029°11'0 0.0
2014-Sep-15 04:29N 40°52' E 029°11'0 0.0
2014-Sep-15 03:22N 40°52' E 029°11'0 0.0
2014-Sep-15 02:10N 40°52' E 029°11'0 0.0
2014-Sep-15 01:10N 40°52' E 029°11'0 0.0
2014-Sep-15 00:10N 40°52' E 029°11'0 0.0
2014-Sep-14 23:22N 40°52' E 029°11'0 0.0
2014-Sep-14 22:28N 40°52' E 029°11'0 0.0
2014-Sep-14 21:28N 40°52' E 029°11'0 0.0
2014-Sep-14 20:22N 40°52' E 029°11'0 0.0
2014-Sep-14 19:22N 40°52' E 029°11'0 0.0
2014-Sep-14 18:28N 40°52' E 029°11'0 0.0
2014-Sep-14 17:10N 40°52' E 029°11'0 0.0
2014-Sep-14 16:28N 40°52' E 029°11'0 0.0
2014-Sep-14 15:28N 40°52' E 029°11'0 0.0
2014-Sep-14 14:28N 40°52' E 029°11'0 0.0
2014-Sep-14 13:28N 40°52' E 029°11'0 0.0
2014-Sep-14 12:28N 40°52' E 029°11'0 0.0
2014-Sep-14 11:22N 40°52' E 029°11'0 0.0
2014-Sep-14 10:22N 40°52' E 029°11'0 0.0
2014-Sep-14 09:22N 40°52' E 029°11'0 0.0
2014-Sep-14 08:28N 40°52' E 029°11'0 0.0
2014-Sep-14 07:22N 40°52' E 029°11'0 0.1
2014-Sep-14 06:10N 40°52' E 029°11'0 0.0
2014-Sep-14 05:28N 40°52' E 029°11'0 0.0
2014-Sep-14 04:28N 40°52' E 029°11'0 0.0
2014-Sep-14 03:10N 40°52' E 029°11'0 0.0
2014-Sep-14 02:28N 40°52' E 029°11'0 0.0
2014-Sep-14 01:22N 40°52' E 029°11'0 0.0
2014-Sep-13 21:28N 40°52' E 029°11'0 0.1
2014-Sep-13 20:22N 40°52' E 029°11'0 0.0
2014-Sep-13 19:22N 40°52' E 029°11'0 0.1
2014-Sep-13 18:28N 40°52' E 029°11'0 0.0
2014-Sep-13 17:28N 40°52' E 029°11'  
Track history (hours):
 
Tides and Currents Weather Stations Pressure Air Temp Water Temp Dewpoint Dewpoint Depression Visibility Wind Speed Wind Dir Waves Ship Positions

Velserdiep

Last reported at 2014-Sep-23 16:29 UTC. Time now 2014-Sep-23 22:30 UTC.
Position N 36°49' E 013°23'.

Length 120 m; draft 7 m.

Type: Cargo ship. MMSI: 244484000.

Date/timePositionNaut miles runAvg speedWind from/ knotsBaromVisibWave heightAir tempDewpointWater temp
2014-Sep-23 16:29N 36°49' E 013°23'910.2
2014-Sep-23 15:33N 36°47' E 013°34'1010.4
2014-Sep-23 14:33N 36°45' E 013°47'1110.7
2014-Sep-23 13:33N 36°43' E 013°60'1010.1
2014-Sep-23 12:33N 36°41' E 014°12'1010.0
2014-Sep-23 11:33N 36°38' E 014°24'1010.4
2014-Sep-23 10:33N 36°36' E 014°37'1210.4
2014-Sep-23 09:27N 36°34' E 014°51'40911.0
2014-Sep-21 20:27N 36°27' E 023°20'1111.6
2014-Sep-21 19:33N 36°33' E 023°31'1211.8
2014-Sep-21 18:33N 36°39' E 023°43'2712.3
2014-Sep-21 16:20N 36°53' E 024°12'1012.4
2014-Sep-21 15:33N 36°59' E 024°22'1211.7
2014-Sep-21 14:33N 37°05' E 024°35'1211.8
2014-Sep-21 13:33N 37°12' E 024°46'1212.1
2014-Sep-21 12:33N 37°20' E 024°58'5 5.2
2014-Sep-21 11:33N 37°25' E 024°58'0 0.0
2014-Sep-21 10:33N 37°25' E 024°58'0 0.0
2014-Sep-21 09:33N 37°25' E 024°58'0 0.0
2014-Sep-21 08:33N 37°25' E 024°58'0 0.1
2014-Sep-21 07:33N 37°25' E 024°58'3 3.0
2014-Sep-21 06:33N 37°27' E 025°02'9110.0
2014-Sep-20 21:25N 38°58' E 025°15'19710.9
2014-Sep-20 03:20N 40°54' E 028°43'911.4
2014-Sep-20 02:33N 40°56' E 028°54'1410.6
2014-Sep-20 01:12N 41°08' E 029°04'15 8.5
2014-Sep-19 23:23N 41°24' E 029°03'  
2014-Sep-17 02:33N 40°59' E 028°60'9 9.1
2014-Sep-17 01:33N 40°50' E 029°03'6 5.6
2014-Sep-17 00:24N 40°52' E 029°11'0 0.0
2014-Sep-16 23:30N 40°52' E 029°11'0 0.0
2014-Sep-16 22:12N 40°52' E 029°11'0 0.0
2014-Sep-16 21:06N 40°52' E 029°11'0 0.0
2014-Sep-16 20:30N 40°52' E 029°11'0 0.0
2014-Sep-16 19:30N 40°52' E 029°11'0 0.0
2014-Sep-16 18:12N 40°52' E 029°11'0 0.0
2014-Sep-16 17:30N 40°52' E 029°11'0 0.0
2014-Sep-16 16:29N 40°52' E 029°11'0 0.0
2014-Sep-16 15:23N 40°52' E 029°11'0 0.0
2014-Sep-16 14:23N 40°52' E 029°11'0 0.0
2014-Sep-16 13:23N 40°52' E 029°11'0 0.0
2014-Sep-16 12:29N 40°52' E 029°11'0 0.2
2014-Sep-16 11:29N 40°52' E 029°11'0 0.0
2014-Sep-16 10:29N 40°52' E 029°11'0 0.0
2014-Sep-16 09:29N 40°52' E 029°11'0 0.1
2014-Sep-16 08:29N 40°52' E 029°11'0 0.0
2014-Sep-16 07:17N 40°52' E 029°11'0 0.0
2014-Sep-16 06:17N 40°52' E 029°11'0 0.1
2014-Sep-16 05:29N 40°52' E 029°11'0 0.0
2014-Sep-16 04:29N 40°52' E 029°11'0 0.0
2014-Sep-16 03:29N 40°52' E 029°11'0 0.0
2014-Sep-16 02:29N 40°52' E 029°11'0 0.0
2014-Sep-16 01:29N 40°52' E 029°11'0 0.0
2014-Sep-16 00:29N 40°52' E 029°11'0 0.0
2014-Sep-15 23:23N 40°52' E 029°11'0 0.0
2014-Sep-15 22:29N 40°52' E 029°11'0 0.0
2014-Sep-15 21:17N 40°52' E 029°11'0 0.0
2014-Sep-15 20:29N 40°52' E 029°11'0 0.0
2014-Sep-15 19:29N 40°52' E 029°11'0 0.0
2014-Sep-15 18:29N 40°52' E 029°11'0 0.0
2014-Sep-15 17:23N 40°52' E 029°11'0 0.0
2014-Sep-15 16:29N 40°52' E 029°11'0 0.0
2014-Sep-15 14:29N 40°52' E 029°11'0 0.0
2014-Sep-15 13:29N 40°52' E 029°11'0 0.1
2014-Sep-15 12:29N 40°52' E 029°11'0 0.0
2014-Sep-15 11:29N 40°52' E 029°11'0 0.1
2014-Sep-15 10:17N 40°52' E 029°11'0 0.0
2014-Sep-15 09:29N 40°52' E 029°11'0 0.1
2014-Sep-15 08:29N 40°52' E 029°11'0 0.1
2014-Sep-15 07:29N 40°52' E 029°11'0 0.0
2014-Sep-15 06:23N 40°52' E 029°11'0 0.0
2014-Sep-15 05:29N 40°52' E 029°11'0 0.0
2014-Sep-15 04:29N 40°52' E 029°11'0 0.0
2014-Sep-15 03:22N 40°52' E 029°11'0 0.0
2014-Sep-15 02:10N 40°52' E 029°11'0 0.0
2014-Sep-15 01:10N 40°52' E 029°11'0 0.0
2014-Sep-15 00:10N 40°52' E 029°11'0 0.0
2014-Sep-14 23:22N 40°52' E 029°11'0 0.0
2014-Sep-14 22:28N 40°52' E 029°11'0 0.0
2014-Sep-14 21:28N 40°52' E 029°11'0 0.0
2014-Sep-14 20:22N 40°52' E 029°11'0 0.0
2014-Sep-14 19:22N 40°52' E 029°11'0 0.0
2014-Sep-14 18:28N 40°52' E 029°11'0 0.0
2014-Sep-14 17:10N 40°52' E 029°11'0 0.0
2014-Sep-14 16:28N 40°52' E 029°11'0 0.0
2014-Sep-14 15:28N 40°52' E 029°11'0 0.0
2014-Sep-14 14:28N 40°52' E 029°11'0 0.0
2014-Sep-14 13:28N 40°52' E 029°11'0 0.0
2014-Sep-14 12:28N 40°52' E 029°11'0 0.0
2014-Sep-14 11:22N 40°52' E 029°11'0 0.0
2014-Sep-14 10:22N 40°52' E 029°11'0 0.0
2014-Sep-14 09:22N 40°52' E 029°11'0 0.0
2014-Sep-14 08:28N 40°52' E 029°11'0 0.0
2014-Sep-14 07:22N 40°52' E 029°11'0 0.1
2014-Sep-14 06:10N 40°52' E 029°11'0 0.0
2014-Sep-14 05:28N 40°52' E 029°11'0 0.0
2014-Sep-14 04:28N 40°52' E 029°11'0 0.0
2014-Sep-14 03:10N 40°52' E 029°11'0 0.0
2014-Sep-14 02:28N 40°52' E 029°11'0 0.0
2014-Sep-14 01:22N 40°52' E 029°11'0 0.0
2014-Sep-13 21:28N 40°52' E 029°11'0 0.1
2014-Sep-13 20:22N 40°52' E 029°11'0 0.0
2014-Sep-13 19:22N 40°52' E 029°11'0 0.1
2014-Sep-13 18:28N 40°52' E 029°11'0 0.0
2014-Sep-13 17:28N 40°52' E 029°11'  

Dump ship's entire track history